CheckWX is a tool to help pilots better visualize weather data.  It is not intended as a substitute for an official pre-flight weather briefing.

21:41:24 UTC

KOAK TAF
Metropolitan Oakland International Airport
Oakland, California, USA
KOAK 041736Z 0418/0524 16013KT P6SM -RA OVC015 FM042000 21013KT 6SM -RA BR OVC015 FM050400 24015KT P6SM -SHRA BKN025 OVC040 FM050900 21013G19KT P6SM BKN025 PROB30 0509/0513 P6SM -SHRA BKN015 OVC025 FM051300 24025G35KT 4SM -RA BKN025 OVC030 FM052100 25013KT 5SM -SHRA BR OVC025

Apr-4@
18:00 UTC

Apr-4 @ 18:00 UTC

Apr-4@
20:00 UTC

Apr-4 @ 20:00 UTC

TAF KOAK 041736Z 0418/0524 16013KT P6SM -RA OVC015

Expired

Wind
  • 160° at 13 KTS
Conditions
Light Rain
Cloud Levels
  • Overcast at 1,500' AGL

Apr-4@
20:00 UTC

Apr-4 @ 20:00 UTC

Apr-5@
04:00 UTC

Apr-5 @ 04:00 UTC

FM042000 21013KT 6SM -RA BR OVC015

Expired

Wind
  • 210° at 13 KTS
Conditions
Light Rain, Mist
Cloud Levels
  • Overcast at 1,500' AGL

Apr-5@
04:00 UTC

Apr-5 @ 04:00 UTC

Apr-5@
09:00 UTC

Apr-5 @ 09:00 UTC

FM050400 24015KT P6SM -SHRA BKN025 OVC040

Expired

Wind
  • 240° at 15 KTS
Conditions
Light Showers, Rain
Cloud Levels
  • Broken at 2,500' AGL
  • Overcast at 4,000' AGL

Apr-5@
09:00 UTC

Apr-5 @ 09:00 UTC

Apr-5@
13:00 UTC

Apr-5 @ 13:00 UTC

FM050900 21013G19KT P6SM BKN025

Expired

Wind
  • 210° at 13 KTS
  • {Gusting to 19 KTS
Cloud Levels
  • Broken at 2,500' AGL

Apr-5@
09:00 UTC

Apr-5 @ 09:00 UTC

Apr-5@
13:00 UTC

Apr-5 @ 13:00 UTC

PROB30 0509/0513 P6SM -SHRA BKN015 OVC025

Expired

Conditions
Light Showers, Rain
Cloud Levels
  • Broken at 1,500' AGL
  • Overcast at 2,500' AGL

Apr-5@
13:00 UTC

Apr-5 @ 13:00 UTC

Apr-5@
21:00 UTC

Apr-5 @ 21:00 UTC

FM051300 24025G35KT 4SM -RA BKN025 OVC030

Expired

Wind
  • 240° at 25 KTS
  • {Gusting to 35 KTS
Conditions
Light Rain
Cloud Levels
  • Broken at 2,500' AGL
  • Overcast at 3,000' AGL

Apr-5@
21:00 UTC

Apr-5 @ 21:00 UTC

Apr-6@
00:00 UTC

Apr-6 @ 00:00 UTC

FM052100 25013KT 5SM -SHRA BR OVC025

From

From Standard forecast or significant change

Wind
  • 250° at 13 KTS
Conditions
Light Showers, Rain, Mist
Cloud Levels
  • Overcast at 2,500' AGL